sensor_id;sensor_type;location;lat;lon;timestamp;P1;durP1;ratioP1;P2;durP2;ratioP2
18142;SDS011;9197;50.930;3.140;2023-09-07T00:00:50;20.08;;;18.27;;
18142;SDS011;9197;50.930;3.140;2023-09-07T00:03:18;18.95;;;16.20;;
18142;SDS011;9197;50.930;3.140;2023-09-07T00:05:45;22.15;;;20.10;;
18142;SDS011;9197;50.930;3.140;2023-09-07T00:08:14;18.92;;;17.20;;
18142;SDS011;9197;50.930;3.140;2023-09-07T00:10:42;19.42;;;17.05;;
18142;SDS011;9197;50.930;3.140;2023-09-07T00:13:09;18.38;;;16.65;;
18142;SDS011;9197;50.930;3.140;2023-09-07T00:15:38;18.75;;;16.92;;
18142;SDS011;9197;50.930;3.140;2023-09-07T00:18:05;17.67;;;16.13;;
18142;SDS011;9197;50.930;3.140;2023-09-07T00:20:33;19.85;;;18.00;;
18142;SDS011;9197;50.930;3.140;2023-09-07T00:23:00;19.50;;;17.73;;
18142;SDS011;9197;50.930;3.140;2023-09-07T00:25:30;20.75;;;18.40;;
18142;SDS011;9197;50.930;3.140;2023-09-07T00:27:58;20.33;;;18.15;;
18142;SDS011;9197;50.930;3.140;2023-09-07T00:30:25;20.30;;;18.40;;
18142;SDS011;9197;50.930;3.140;2023-09-07T00:32:54;20.63;;;18.58;;
18142;SDS011;9197;50.930;3.140;2023-09-07T00:35:22;19.90;;;18.02;;
18142;SDS011;9197;50.930;3.140;2023-09-07T00:37:49;20.25;;;18.35;;
18142;SDS011;9197;50.930;3.140;2023-09-07T00:40:16;21.05;;;18.83;;
18142;SDS011;9197;50.930;3.140;2023-09-07T00:42:44;20.73;;;18.65;;
18142;SDS011;9197;50.930;3.140;2023-09-07T00:45:13;19.77;;;17.92;;
18142;SDS011;9197;50.930;3.140;2023-09-07T00:47:40;19.88;;;17.70;;
18142;SDS011;9197;50.930;3.140;2023-09-07T00:50:11;21.65;;;19.70;;
18142;SDS011;9197;50.930;3.140;2023-09-07T00:52:41;22.45;;;20.10;;
18142;SDS011;9197;50.930;3.140;2023-09-07T00:55:13;20.65;;;18.52;;
18142;SDS011;9197;50.930;3.140;2023-09-07T00:57:40;20.80;;;18.95;;
18142;SDS011;9197;50.930;3.140;2023-09-07T01:00:08;22.25;;;18.77;;
18142;SDS011;9197;50.930;3.140;2023-09-07T01:02:37;21.58;;;19.65;;
18142;SDS011;9197;50.930;3.140;2023-09-07T01:05:05;22.30;;;20.05;;
18142;SDS011;9197;50.930;3.140;2023-09-07T01:07:35;22.73;;;20.58;;
18142;SDS011;9197;50.930;3.140;2023-09-07T01:10:05;22.08;;;20.13;;
18142;SDS011;9197;50.930;3.140;2023-09-07T01:12:33;23.33;;;20.65;;
18142;SDS011;9197;50.930;3.140;2023-09-07T01:15:01;23.08;;;20.52;;
18142;SDS011;9197;50.930;3.140;2023-09-07T01:17:30;24.75;;;22.23;;
18142;SDS011;9197;50.930;3.140;2023-09-07T01:19:57;24.10;;;21.05;;
18142;SDS011;9197;50.930;3.140;2023-09-07T01:22:32;23.45;;;20.98;;
18142;SDS011;9197;50.930;3.140;2023-09-07T01:25:00;24.90;;;22.42;;
18142;SDS011;9197;50.930;3.140;2023-09-07T01:27:27;22.10;;;20.10;;
18142;SDS011;9197;50.930;3.140;2023-09-07T01:29:55;24.02;;;21.40;;
18142;SDS011;9197;50.930;3.140;2023-09-07T01:32:22;24.33;;;21.83;;
18142;SDS011;9197;50.930;3.140;2023-09-07T01:34:53;23.85;;;21.58;;
18142;SDS011;9197;50.930;3.140;2023-09-07T01:37:22;24.60;;;22.13;;
18142;SDS011;9197;50.930;3.140;2023-09-07T01:39:51;25.27;;;22.65;;
18142;SDS011;9197;50.930;3.140;2023-09-07T01:42:19;25.25;;;22.58;;
18142;SDS011;9197;50.930;3.140;2023-09-07T01:44:47;24.88;;;22.27;;
18142;SDS011;9197;50.930;3.140;2023-09-07T01:47:14;23.73;;;21.33;;
18142;SDS011;9197;50.930;3.140;2023-09-07T01:49:41;25.90;;;23.10;;
18142;SDS011;9197;50.930;3.140;2023-09-07T01:52:09;25.52;;;22.83;;
18142;SDS011;9197;50.930;3.140;2023-09-07T01:54:36;24.85;;;22.33;;
18142;SDS011;9197;50.930;3.140;2023-09-07T01:57:05;26.42;;;23.88;;
18142;SDS011;9197;50.930;3.140;2023-09-07T01:59:33;25.90;;;23.33;;
18142;SDS011;9197;50.930;3.140;2023-09-07T02:02:00;24.98;;;22.35;;
18142;SDS011;9197;50.930;3.140;2023-09-07T02:04:27;24.67;;;22.10;;
18142;SDS011;9197;50.930;3.140;2023-09-07T02:06:56;22.45;;;20.05;;
18142;SDS011;9197;50.930;3.140;2023-09-07T02:09:24;24.30;;;22.02;;
18142;SDS011;9197;50.930;3.140;2023-09-07T02:11:51;24.48;;;22.27;;
18142;SDS011;9197;50.930;3.140;2023-09-07T02:14:20;22.90;;;20.70;;
18142;SDS011;9197;50.930;3.140;2023-09-07T02:16:47;25.15;;;22.75;;
18142;SDS011;9197;50.930;3.140;2023-09-07T02:19:17;24.77;;;22.25;;
18142;SDS011;9197;50.930;3.140;2023-09-07T02:21:47;25.95;;;22.90;;
18142;SDS011;9197;50.930;3.140;2023-09-07T02:24:15;25.52;;;22.77;;
18142;SDS011;9197;50.930;3.140;2023-09-07T02:26:42;24.85;;;22.33;;
18142;SDS011;9197;50.930;3.140;2023-09-07T02:29:11;24.77;;;22.20;;
18142;SDS011;9197;50.930;3.140;2023-09-07T02:31:40;24.80;;;22.27;;
18142;SDS011;9197;50.930;3.140;2023-09-07T02:34:07;24.20;;;21.70;;
18142;SDS011;9197;50.930;3.140;2023-09-07T02:36:34;26.40;;;23.58;;
18142;SDS011;9197;50.930;3.140;2023-09-07T02:39:02;25.77;;;23.08;;
18142;SDS011;9197;50.930;3.140;2023-09-07T02:41:30;27.55;;;24.02;;
18142;SDS011;9197;50.930;3.140;2023-09-07T02:43:58;24.17;;;21.58;;
18142;SDS011;9197;50.930;3.140;2023-09-07T02:46:25;22.65;;;20.50;;
18142;SDS011;9197;50.930;3.140;2023-09-07T02:48:54;22.85;;;20.45;;
18142;SDS011;9197;50.930;3.140;2023-09-07T02:51:22;22.45;;;20.08;;
18142;SDS011;9197;50.930;3.140;2023-09-07T02:53:51;24.40;;;22.17;;
18142;SDS011;9197;50.930;3.140;2023-09-07T02:56:18;24.23;;;21.77;;
18142;SDS011;9197;50.930;3.140;2023-09-07T02:58:48;27.63;;;24.40;;
18142;SDS011;9197;50.930;3.140;2023-09-07T03:01:16;27.77;;;24.77;;
18142;SDS011;9197;50.930;3.140;2023-09-07T03:03:47;26.92;;;24.23;;
18142;SDS011;9197;50.930;3.140;2023-09-07T03:06:16;28.10;;;25.25;;
18142;SDS011;9197;50.930;3.140;2023-09-07T03:08:43;28.83;;;25.98;;
18142;SDS011;9197;50.930;3.140;2023-09-07T03:11:13;23.60;;;20.73;;
18142;SDS011;9197;50.930;3.140;2023-09-07T03:13:41;26.13;;;23.52;;
18142;SDS011;9197;50.930;3.140;2023-09-07T03:16:08;28.60;;;25.92;;
18142;SDS011;9197;50.930;3.140;2023-09-07T03:18:36;27.40;;;24.55;;
18142;SDS011;9197;50.930;3.140;2023-09-07T03:21:05;24.23;;;21.90;;
18142;SDS011;9197;50.930;3.140;2023-09-07T03:23:35;24.98;;;22.58;;
18142;SDS011;9197;50.930;3.140;2023-09-07T03:26:04;23.05;;;20.70;;
18142;SDS011;9197;50.930;3.140;2023-09-07T03:28:32;23.60;;;21.25;;
18142;SDS011;9197;50.930;3.140;2023-09-07T03:30:59;27.35;;;24.42;;
18142;SDS011;9197;50.930;3.140;2023-09-07T03:33:27;26.75;;;24.13;;
18142;SDS011;9197;50.930;3.140;2023-09-07T03:35:54;26.95;;;24.23;;
18142;SDS011;9197;50.930;3.140;2023-09-07T03:38:24;27.20;;;24.38;;
18142;SDS011;9197;50.930;3.140;2023-09-07T03:40:56;26.30;;;23.23;;
18142;SDS011;9197;50.930;3.140;2023-09-07T03:43:24;23.63;;;21.30;;
18142;SDS011;9197;50.930;3.140;2023-09-07T03:45:53;28.98;;;26.00;;
18142;SDS011;9197;50.930;3.140;2023-09-07T03:48:20;29.52;;;25.42;;
18142;SDS011;9197;50.930;3.140;2023-09-07T03:50:48;28.63;;;25.83;;
18142;SDS011;9197;50.930;3.140;2023-09-07T03:53:15;29.58;;;26.58;;
18142;SDS011;9197;50.930;3.140;2023-09-07T03:55:46;28.55;;;25.65;;
18142;SDS011;9197;50.930;3.140;2023-09-07T03:58:15;30.25;;;27.33;;
18142;SDS011;9197;50.930;3.140;2023-09-07T04:00:43;29.05;;;26.35;;
18142;SDS011;9197;50.930;3.140;2023-09-07T04:03:11;31.67;;;28.67;;
18142;SDS011;9197;50.930;3.140;2023-09-07T04:05:40;30.70;;;27.58;;
18142;SDS011;9197;50.930;3.140;2023-09-07T04:08:07;36.70;;;30.65;;
18142;SDS011;9197;50.930;3.140;2023-09-07T04:10:38;31.13;;;27.83;;
18142;SDS011;9197;50.930;3.140;2023-09-07T04:13:05;31.92;;;28.73;;
18142;SDS011;9197;50.930;3.140;2023-09-07T04:15:39;31.77;;;28.55;;
18142;SDS011;9197;50.930;3.140;2023-09-07T04:18:09;32.08;;;28.80;;
18142;SDS011;9197;50.930;3.140;2023-09-07T04:20:37;31.75;;;28.60;;
18142;SDS011;9197;50.930;3.140;2023-09-07T04:23:10;32.33;;;29.23;;
18142;SDS011;9197;50.930;3.140;2023-09-07T04:25:37;32.92;;;29.60;;
18142;SDS011;9197;50.930;3.140;2023-09-07T04:28:07;32.97;;;29.52;;
18142;SDS011;9197;50.930;3.140;2023-09-07T04:30:38;32.33;;;29.00;;
18142;SDS011;9197;50.930;3.140;2023-09-07T04:33:07;33.63;;;29.35;;
18142;SDS011;9197;50.930;3.140;2023-09-07T04:35:34;31.15;;;28.17;;
18142;SDS011;9197;50.930;3.140;2023-09-07T04:38:02;30.15;;;27.27;;
18142;SDS011;9197;50.930;3.140;2023-09-07T04:40:29;32.42;;;29.17;;
18142;SDS011;9197;50.930;3.140;2023-09-07T04:42:57;31.00;;;28.13;;
18142;SDS011;9197;50.930;3.140;2023-09-07T04:45:24;31.50;;;27.95;;
18142;SDS011;9197;50.930;3.140;2023-09-07T04:47:53;32.83;;;29.40;;
18142;SDS011;9197;50.930;3.140;2023-09-07T04:50:20;31.55;;;28.15;;
18142;SDS011;9197;50.930;3.140;2023-09-07T04:52:48;33.22;;;30.02;;
18142;SDS011;9197;50.930;3.140;2023-09-07T04:55:15;28.48;;;25.67;;
18142;SDS011;9197;50.930;3.140;2023-09-07T04:57:42;30.43;;;27.63;;
18142;SDS011;9197;50.930;3.140;2023-09-07T05:00:10;30.80;;;27.50;;
18142;SDS011;9197;50.930;3.140;2023-09-07T05:02:37;30.23;;;27.17;;
18142;SDS011;9197;50.930;3.140;2023-09-07T05:05:09;32.58;;;29.15;;
18142;SDS011;9197;50.930;3.140;2023-09-07T05:07:36;31.35;;;28.05;;
18142;SDS011;9197;50.930;3.140;2023-09-07T05:10:04;33.35;;;26.92;;
18142;SDS011;9197;50.930;3.140;2023-09-07T05:12:33;28.25;;;25.23;;
18142;SDS011;9197;50.930;3.140;2023-09-07T05:15:00;28.38;;;25.58;;
18142;SDS011;9197;50.930;3.140;2023-09-07T05:17:29;27.50;;;24.70;;
18142;SDS011;9197;50.930;3.140;2023-09-07T05:19:57;26.83;;;23.85;;
18142;SDS011;9197;50.930;3.140;2023-09-07T05:22:26;27.60;;;24.85;;
18142;SDS011;9197;50.930;3.140;2023-09-07T05:24:53;27.20;;;24.50;;
18142;SDS011;9197;50.930;3.140;2023-09-07T05:27:22;28.35;;;24.50;;
18142;SDS011;9197;50.930;3.140;2023-09-07T05:29:50;27.27;;;24.30;;
18142;SDS011;9197;50.930;3.140;2023-09-07T05:32:17;30.77;;;25.63;;
18142;SDS011;9197;50.930;3.140;2023-09-07T05:34:44;31.40;;;27.60;;
18142;SDS011;9197;50.930;3.140;2023-09-07T05:37:12;35.72;;;27.98;;
18142;SDS011;9197;50.930;3.140;2023-09-07T05:39:41;29.30;;;26.05;;
18142;SDS011;9197;50.930;3.140;2023-09-07T05:42:08;38.08;;;28.23;;
18142;SDS011;9197;50.930;3.140;2023-09-07T05:44:35;34.03;;;27.58;;
18142;SDS011;9197;50.930;3.140;2023-09-07T05:47:05;31.02;;;25.23;;
18142;SDS011;9197;50.930;3.140;2023-09-07T05:49:33;29.75;;;26.15;;
18142;SDS011;9197;50.930;3.140;2023-09-07T05:52:00;31.33;;;27.05;;
18142;SDS011;9197;50.930;3.140;2023-09-07T05:54:27;36.00;;;26.77;;
18142;SDS011;9197;50.930;3.140;2023-09-07T05:56:56;28.98;;;25.83;;
18142;SDS011;9197;50.930;3.140;2023-09-07T05:59:24;29.45;;;25.58;;
18142;SDS011;9197;50.930;3.140;2023-09-07T06:01:51;32.47;;;26.55;;
18142;SDS011;9197;50.930;3.140;2023-09-07T06:04:18;37.67;;;26.00;;
18142;SDS011;9197;50.930;3.140;2023-09-07T06:06:46;31.13;;;26.58;;
18142;SDS011;9197;50.930;3.140;2023-09-07T06:09:14;28.83;;;25.77;;
18142;SDS011;9197;50.930;3.140;2023-09-07T06:11:41;29.70;;;26.50;;
18142;SDS011;9197;50.930;3.140;2023-09-07T06:14:10;28.35;;;25.40;;
18142;SDS011;9197;50.930;3.140;2023-09-07T06:16:37;32.55;;;25.00;;
18142;SDS011;9197;50.930;3.140;2023-09-07T06:19:05;31.08;;;24.10;;
18142;SDS011;9197;50.930;3.140;2023-09-07T06:21:33;30.02;;;23.55;;
18142;SDS011;9197;50.930;3.140;2023-09-07T06:24:11;33.08;;;24.60;;
18142;SDS011;9197;50.930;3.140;2023-09-07T06:26:41;27.55;;;23.42;;
18142;SDS011;9197;50.930;3.140;2023-09-07T06:29:13;28.42;;;24.00;;
18142;SDS011;9197;50.930;3.140;2023-09-07T06:31:44;27.48;;;22.75;;
18142;SDS011;9197;50.930;3.140;2023-09-07T06:34:20;29.55;;;22.17;;
18142;SDS011;9197;50.930;3.140;2023-09-07T06:36:49;27.58;;;19.52;;
18142;SDS011;9197;50.930;3.140;2023-09-07T06:39:31;24.27;;;17.20;;
18142;SDS011;9197;50.930;3.140;2023-09-07T06:42:08;21.88;;;15.15;;
18142;SDS011;9197;50.930;3.140;2023-09-07T06:44:54;17.77;;;15.23;;
18142;SDS011;9197;50.930;3.140;2023-09-07T06:47:33;18.58;;;15.85;;
18142;SDS011;9197;50.930;3.140;2023-09-07T06:50:25;16.30;;;14.63;;
18142;SDS011;9197;50.930;3.140;2023-09-07T06:53:09;17.65;;;13.95;;
18142;SDS011;9197;50.930;3.140;2023-09-07T06:56:10;17.13;;;13.98;;
18142;SDS011;9197;50.930;3.140;2023-09-07T06:58:56;19.48;;;13.93;;
18142;SDS011;9197;50.930;3.140;2023-09-07T07:04:31;16.45;;;13.63;;
18142;SDS011;9197;50.930;3.140;2023-09-07T07:07:20;15.48;;;13.40;;
18142;SDS011;9197;50.930;3.140;2023-09-07T07:11:01;19.58;;;14.77;;
18142;SDS011;9197;50.930;3.140;2023-09-07T07:13:05;15.25;;;13.27;;
18142;SDS011;9197;50.930;3.140;2023-09-07T07:15:49;15.80;;;13.52;;
18142;SDS011;9197;50.930;3.140;2023-09-07T07:18:36;23.65;;;13.63;;
18142;SDS011;9197;50.930;3.140;2023-09-07T07:21:13;20.45;;;14.52;;
18142;SDS011;9197;50.930;3.140;2023-09-07T07:23:56;27.77;;;15.32;;
18142;SDS011;9197;50.930;3.140;2023-09-07T07:26:42;24.02;;;15.73;;
18142;SDS011;9197;50.930;3.140;2023-09-07T07:29:30;16.15;;;13.63;;
18142;SDS011;9197;50.930;3.140;2023-09-07T07:32:07;14.15;;;12.75;;
18142;SDS011;9197;50.930;3.140;2023-09-07T07:34:51;14.35;;;12.93;;
18142;SDS011;9197;50.930;3.140;2023-09-07T07:37:23;13.63;;;11.05;;
18142;SDS011;9197;50.930;3.140;2023-09-07T07:40:23;13.57;;;11.70;;
18142;SDS011;9197;50.930;3.140;2023-09-07T07:43:07;14.90;;;11.32;;
18142;SDS011;9197;50.930;3.140;2023-09-07T07:45:47;13.10;;;11.35;;
18142;SDS011;9197;50.930;3.140;2023-09-07T07:48:36;11.70;;;10.65;;
18142;SDS011;9197;50.930;3.140;2023-09-07T07:51:21;14.05;;;12.20;;
18142;SDS011;9197;50.930;3.140;2023-09-07T07:56:45;12.93;;;10.88;;
18142;SDS011;9197;50.930;3.140;2023-09-07T07:59:21;18.15;;;10.45;;
18142;SDS011;9197;50.930;3.140;2023-09-07T08:01:57;12.82;;;11.00;;
18142;SDS011;9197;50.930;3.140;2023-09-07T08:04:25;12.00;;;10.90;;
18142;SDS011;9197;50.930;3.140;2023-09-07T08:07:20;12.00;;;10.00;;
18142;SDS011;9197;50.930;3.140;2023-09-07T08:09:52;11.82;;;10.45;;
18142;SDS011;9197;50.930;3.140;2023-09-07T08:12:25;12.55;;;11.25;;
18142;SDS011;9197;50.930;3.140;2023-09-07T08:14:56;12.30;;;9.68;;
18142;SDS011;9197;50.930;3.140;2023-09-07T08:17:33;10.55;;;8.82;;
18142;SDS011;9197;50.930;3.140;2023-09-07T08:20:02;11.93;;;9.88;;
18142;SDS011;9197;50.930;3.140;2023-09-07T08:23:09;10.63;;;9.68;;
18142;SDS011;9197;50.930;3.140;2023-09-07T08:25:56;10.00;;;9.20;;
18142;SDS011;9197;50.930;3.140;2023-09-07T08:28:39;11.55;;;10.30;;
18142;SDS011;9197;50.930;3.140;2023-09-07T08:31:12;11.63;;;9.48;;
18142;SDS011;9197;50.930;3.140;2023-09-07T08:33:48;12.10;;;9.32;;
18142;SDS011;9197;50.930;3.140;2023-09-07T08:36:29;11.85;;;8.38;;
18142;SDS011;9197;50.930;3.140;2023-09-07T08:38:59;9.52;;;7.95;;
18142;SDS011;9197;50.930;3.140;2023-09-07T08:41:35;8.70;;;7.80;;
18142;SDS011;9197;50.930;3.140;2023-09-07T08:44:19;8.18;;;7.35;;
18142;SDS011;9197;50.930;3.140;2023-09-07T08:46:49;9.15;;;8.32;;
18142;SDS011;9197;50.930;3.140;2023-09-07T08:49:19;10.73;;;8.57;;
18142;SDS011;9197;50.930;3.140;2023-09-07T08:51:50;9.57;;;8.27;;
18142;SDS011;9197;50.930;3.140;2023-09-07T08:54:19;8.02;;;7.38;;
18142;SDS011;9197;50.930;3.140;2023-09-07T08:56:53;9.32;;;7.80;;
18142;SDS011;9197;50.930;3.140;2023-09-07T09:02:03;9.82;;;9.07;;
18142;SDS011;9197;50.930;3.140;2023-09-07T09:04:41;8.23;;;7.50;;
18142;SDS011;9197;50.930;3.140;2023-09-07T09:07:19;11.25;;;8.25;;
18142;SDS011;9197;50.930;3.140;2023-09-07T09:10:04;8.73;;;7.85;;
18142;SDS011;9197;50.930;3.140;2023-09-07T09:12:44;9.48;;;8.45;;
18142;SDS011;9197;50.930;3.140;2023-09-07T09:15:17;10.10;;;9.07;;
18142;SDS011;9197;50.930;3.140;2023-09-07T09:17:48;10.52;;;9.55;;
18142;SDS011;9197;50.930;3.140;2023-09-07T09:20:25;8.70;;;7.95;;
18142;SDS011;9197;50.930;3.140;2023-09-07T09:23:18;9.63;;;8.68;;
18142;SDS011;9197;50.930;3.140;2023-09-07T09:25:53;10.00;;;9.15;;
18142;SDS011;9197;50.930;3.140;2023-09-07T09:28:21;9.30;;;8.60;;
18142;SDS011;9197;50.930;3.140;2023-09-07T09:31:01;9.20;;;7.85;;
18142;SDS011;9197;50.930;3.140;2023-09-07T09:33:32;8.20;;;7.43;;
18142;SDS011;9197;50.930;3.140;2023-09-07T09:36:02;9.02;;;8.18;;
18142;SDS011;9197;50.930;3.140;2023-09-07T09:38:34;9.05;;;7.90;;
18142;SDS011;9197;50.930;3.140;2023-09-07T09:41:05;11.65;;;7.55;;
18142;SDS011;9197;50.930;3.140;2023-09-07T09:43:46;8.80;;;8.15;;
18142;SDS011;9197;50.930;3.140;2023-09-07T09:46:36;7.43;;;6.78;;
18142;SDS011;9197;50.930;3.140;2023-09-07T09:49:07;7.43;;;6.90;;
18142;SDS011;9197;50.930;3.140;2023-09-07T09:54:36;7.57;;;6.68;;
18142;SDS011;9197;50.930;3.140;2023-09-07T09:57:30;7.38;;;6.68;;
18142;SDS011;9197;50.930;3.140;2023-09-07T10:00:07;7.47;;;6.82;;
18142;SDS011;9197;50.930;3.140;2023-09-07T10:03:17;8.18;;;7.35;;
18142;SDS011;9197;50.930;3.140;2023-09-07T10:05:54;8.82;;;6.35;;
18142;SDS011;9197;50.930;3.140;2023-09-07T10:08:23;8.48;;;6.35;;
18142;SDS011;9197;50.930;3.140;2023-09-07T10:12:02;8.13;;;7.40;;
18142;SDS011;9197;50.930;3.140;2023-09-07T10:13:59;6.97;;;6.40;;
18142;SDS011;9197;50.930;3.140;2023-09-07T10:17:47;6.63;;;6.00;;
18142;SDS011;9197;50.930;3.140;2023-09-07T10:20:27;7.38;;;6.72;;
18142;SDS011;9197;50.930;3.140;2023-09-07T10:22:26;7.57;;;6.97;;
18142;SDS011;9197;50.930;3.140;2023-09-07T10:24:59;8.73;;;7.90;;
18142;SDS011;9197;50.930;3.140;2023-09-07T10:27:54;9.25;;;8.48;;
18142;SDS011;9197;50.930;3.140;2023-09-07T10:30:27;8.52;;;7.72;;
18142;SDS011;9197;50.930;3.140;2023-09-07T10:32:58;10.68;;;8.20;;
18142;SDS011;9197;50.930;3.140;2023-09-07T10:35:25;8.43;;;7.78;;
18142;SDS011;9197;50.930;3.140;2023-09-07T10:38:01;8.52;;;7.82;;
18142;SDS011;9197;50.930;3.140;2023-09-07T10:40:39;7.60;;;7.00;;
18142;SDS011;9197;50.930;3.140;2023-09-07T10:43:13;8.82;;;6.95;;
18142;SDS011;9197;50.930;3.140;2023-09-07T10:45:45;8.90;;;8.10;;
18142;SDS011;9197;50.930;3.140;2023-09-07T10:48:21;8.02;;;7.15;;
18142;SDS011;9197;50.930;3.140;2023-09-07T10:50:52;7.63;;;6.82;;
18142;SDS011;9197;50.930;3.140;2023-09-07T10:56:23;10.30;;;5.60;;
18142;SDS011;9197;50.930;3.140;2023-09-07T10:58:58;7.95;;;5.60;;
18142;SDS011;9197;50.930;3.140;2023-09-07T11:01:32;7.40;;;5.85;;
18142;SDS011;9197;50.930;3.140;2023-09-07T11:04:04;6.25;;;5.72;;
18142;SDS011;9197;50.930;3.140;2023-09-07T11:06:37;8.32;;;5.65;;
18142;SDS011;9197;50.930;3.140;2023-09-07T11:09:08;7.57;;;5.43;;
18142;SDS011;9197;50.930;3.140;2023-09-07T11:11:46;5.72;;;5.22;;
18142;SDS011;9197;50.930;3.140;2023-09-07T11:14:16;6.68;;;5.10;;
18142;SDS011;9197;50.930;3.140;2023-09-07T11:16:49;5.88;;;5.38;;
18142;SDS011;9197;50.930;3.140;2023-09-07T11:19:21;6.80;;;5.63;;
18142;SDS011;9197;50.930;3.140;2023-09-07T11:21:59;6.43;;;5.63;;
18142;SDS011;9197;50.930;3.140;2023-09-07T11:24:37;10.15;;;5.72;;
18142;SDS011;9197;50.930;3.140;2023-09-07T11:27:08;7.35;;;5.55;;
18142;SDS011;9197;50.930;3.140;2023-09-07T11:29:38;6.13;;;5.32;;
18142;SDS011;9197;50.930;3.140;2023-09-07T11:32:07;9.32;;;5.70;;
18142;SDS011;9197;50.930;3.140;2023-09-07T11:34:46;6.18;;;5.35;;
18142;SDS011;9197;50.930;3.140;2023-09-07T11:37:15;6.60;;;5.60;;
18142;SDS011;9197;50.930;3.140;2023-09-07T11:40:12;8.73;;;6.18;;
18142;SDS011;9197;50.930;3.140;2023-09-07T11:48:48;10.65;;;5.18;;
18142;SDS011;9197;50.930;3.140;2023-09-07T11:51:20;5.75;;;4.78;;
18142;SDS011;9197;50.930;3.140;2023-09-07T11:54:09;6.63;;;5.57;;
18142;SDS011;9197;50.930;3.140;2023-09-07T11:56:47;7.00;;;4.72;;
18142;SDS011;9197;50.930;3.140;2023-09-07T11:59:38;5.95;;;5.28;;
18142;SDS011;9197;50.930;3.140;2023-09-07T12:02:11;5.57;;;5.05;;
18142;SDS011;9197;50.930;3.140;2023-09-07T12:07:51;7.72;;;5.43;;
18142;SDS011;9197;50.930;3.140;2023-09-07T12:10:29;5.47;;;4.97;;
18142;SDS011;9197;50.930;3.140;2023-09-07T12:13:02;5.47;;;4.95;;
18142;SDS011;9197;50.930;3.140;2023-09-07T12:15:34;5.53;;;5.03;;
18142;SDS011;9197;50.930;3.140;2023-09-07T12:21:13;5.13;;;4.43;;
18142;SDS011;9197;50.930;3.140;2023-09-07T12:27:00;4.88;;;4.47;;
18142;SDS011;9197;50.930;3.140;2023-09-07T12:29:55;6.07;;;4.47;;
18142;SDS011;9197;50.930;3.140;2023-09-07T12:32:35;6.13;;;4.25;;
18142;SDS011;9197;50.930;3.140;2023-09-07T12:38:36;4.82;;;4.30;;
18142;SDS011;9197;50.930;3.140;2023-09-07T12:41:11;6.15;;;4.32;;
18142;SDS011;9197;50.930;3.140;2023-09-07T12:49:41;5.78;;;5.10;;
18142;SDS011;9197;50.930;3.140;2023-09-07T12:52:22;4.85;;;4.45;;
18142;SDS011;9197;50.930;3.140;2023-09-07T12:55:08;4.20;;;3.80;;
18142;SDS011;9197;50.930;3.140;2023-09-07T12:57:55;4.72;;;4.32;;
18142;SDS011;9197;50.930;3.140;2023-09-07T13:00:24;6.15;;;4.43;;
18142;SDS011;9197;50.930;3.140;2023-09-07T13:03:23;5.15;;;4.35;;
18142;SDS011;9197;50.930;3.140;2023-09-07T13:05:47;4.78;;;4.35;;
18142;SDS011;9197;50.930;3.140;2023-09-07T13:08:21;6.47;;;4.07;;
18142;SDS011;9197;50.930;3.140;2023-09-07T13:10:58;4.97;;;4.47;;
18142;SDS011;9197;50.930;3.140;2023-09-07T13:13:38;5.65;;;5.13;;
18142;SDS011;9197;50.930;3.140;2023-09-07T13:16:10;9.23;;;4.15;;
18142;SDS011;9197;50.930;3.140;2023-09-07T13:18:53;4.78;;;4.22;;
18142;SDS011;9197;50.930;3.140;2023-09-07T13:24:37;5.20;;;4.78;;
18142;SDS011;9197;50.930;3.140;2023-09-07T13:27:07;10.85;;;4.72;;
18142;SDS011;9197;50.930;3.140;2023-09-07T13:36:05;4.30;;;3.90;;
18142;SDS011;9197;50.930;3.140;2023-09-07T13:39:03;6.00;;;4.47;;
18142;SDS011;9197;50.930;3.140;2023-09-07T13:44:49;4.82;;;4.35;;
18142;SDS011;9197;50.930;3.140;2023-09-07T13:47:35;6.80;;;4.53;;
18142;SDS011;9197;50.930;3.140;2023-09-07T13:52:22;4.80;;;4.35;;
18142;SDS011;9197;50.930;3.140;2023-09-07T13:59:02;5.90;;;4.82;;
18142;SDS011;9197;50.930;3.140;2023-09-07T14:01:56;4.70;;;4.20;;
18142;SDS011;9197;50.930;3.140;2023-09-07T14:04:36;6.18;;;4.70;;
18142;SDS011;9197;50.930;3.140;2023-09-07T14:07:28;5.78;;;5.28;;
18142;SDS011;9197;50.930;3.140;2023-09-07T14:10:07;6.03;;;4.93;;
18142;SDS011;9197;50.930;3.140;2023-09-07T14:12:41;6.20;;;4.75;;
18142;SDS011;9197;50.930;3.140;2023-09-07T14:15:15;7.97;;;4.43;;
18142;SDS011;9197;50.930;3.140;2023-09-07T14:17:44;9.45;;;4.95;;
18142;SDS011;9197;50.930;3.140;2023-09-07T14:20:11;5.75;;;4.40;;
18142;SDS011;9197;50.930;3.140;2023-09-07T14:26:03;5.82;;;4.82;;
18142;SDS011;9197;50.930;3.140;2023-09-07T14:28:46;6.55;;;5.13;;
18142;SDS011;9197;50.930;3.140;2023-09-07T14:31:36;6.72;;;4.72;;
18142;SDS011;9197;50.930;3.140;2023-09-07T14:40:12;4.68;;;4.28;;
18142;SDS011;9197;50.930;3.140;2023-09-07T14:43:00;10.15;;;4.93;;
18142;SDS011;9197;50.930;3.140;2023-09-07T14:48:59;5.18;;;4.68;;
18142;SDS011;9197;50.930;3.140;2023-09-07T14:51:31;5.32;;;4.80;;
18142;SDS011;9197;50.930;3.140;2023-09-07T14:54:17;5.05;;;4.63;;
18142;SDS011;9197;50.930;3.140;2023-09-07T14:59:46;5.10;;;4.60;;
18142;SDS011;9197;50.930;3.140;2023-09-07T15:02:28;5.70;;;4.93;;
18142;SDS011;9197;50.930;3.140;2023-09-07T15:05:24;7.05;;;5.72;;
18142;SDS011;9197;50.930;3.140;2023-09-07T15:07:55;6.45;;;5.82;;
18142;SDS011;9197;50.930;3.140;2023-09-07T15:13:22;6.78;;;4.72;;
18142;SDS011;9197;50.930;3.140;2023-09-07T15:15:55;4.78;;;4.38;;
18142;SDS011;9197;50.930;3.140;2023-09-07T15:18:23;9.15;;;5.25;;
18142;SDS011;9197;50.930;3.140;2023-09-07T15:21:29;4.93;;;4.53;;
18142;SDS011;9197;50.930;3.140;2023-09-07T15:24:18;6.45;;;4.97;;
18142;SDS011;9197;50.930;3.140;2023-09-07T15:26:55;5.00;;;4.60;;
18142;SDS011;9197;50.930;3.140;2023-09-07T15:29:45;5.35;;;4.13;;
18142;SDS011;9197;50.930;3.140;2023-09-07T15:32:16;5.40;;;4.78;;
18142;SDS011;9197;50.930;3.140;2023-09-07T15:35:04;5.72;;;5.20;;
18142;SDS011;9197;50.930;3.140;2023-09-07T15:37:32;6.32;;;4.97;;
18142;SDS011;9197;50.930;3.140;2023-09-07T15:40:01;6.03;;;5.00;;
18142;SDS011;9197;50.930;3.140;2023-09-07T15:42:37;12.40;;;6.45;;
18142;SDS011;9197;50.930;3.140;2023-09-07T15:45:28;8.38;;;4.75;;
18142;SDS011;9197;50.930;3.140;2023-09-07T15:48:00;5.68;;;5.18;;
18142;SDS011;9197;50.930;3.140;2023-09-07T15:50:40;6.95;;;5.18;;
18142;SDS011;9197;50.930;3.140;2023-09-07T15:53:16;13.63;;;6.43;;
18142;SDS011;9197;50.930;3.140;2023-09-07T15:55:49;8.25;;;5.30;;
18142;SDS011;9197;50.930;3.140;2023-09-07T16:01:53;7.63;;;4.55;;
18142;SDS011;9197;50.930;3.140;2023-09-07T16:13:11;9.27;;;4.78;;
18142;SDS011;9197;50.930;3.140;2023-09-07T16:15:40;9.77;;;5.03;;
18142;SDS011;9197;50.930;3.140;2023-09-07T16:18:08;6.45;;;4.97;;
18142;SDS011;9197;50.930;3.140;2023-09-07T16:20:35;9.68;;;5.05;;
18142;SDS011;9197;50.930;3.140;2023-09-07T16:23:06;5.82;;;4.70;;
18142;SDS011;9197;50.930;3.140;2023-09-07T16:25:35;5.78;;;4.60;;
18142;SDS011;9197;50.930;3.140;2023-09-07T16:28:05;8.57;;;4.55;;
18142;SDS011;9197;50.930;3.140;2023-09-07T16:30:34;6.78;;;4.57;;
18142;SDS011;9197;50.930;3.140;2023-09-07T16:33:22;6.40;;;4.85;;
18142;SDS011;9197;50.930;3.140;2023-09-07T16:39:05;5.30;;;4.78;;
18142;SDS011;9197;50.930;3.140;2023-09-07T16:41:48;7.00;;;4.32;;
18142;SDS011;9197;50.930;3.140;2023-09-07T17:11:28;5.97;;;4.63;;
18142;SDS011;9197;50.930;3.140;2023-09-07T17:14:01;9.45;;;4.90;;
18142;SDS011;9197;50.930;3.140;2023-09-07T17:16:32;8.77;;;4.70;;
18142;SDS011;9197;50.930;3.140;2023-09-07T17:19:01;10.48;;;4.53;;
18142;SDS011;9197;50.930;3.140;2023-09-07T17:21:31;4.85;;;4.35;;
18142;SDS011;9197;50.930;3.140;2023-09-07T17:24:00;4.70;;;4.40;;